sensor_id;sensor_type;location;lat;lon;timestamp;temperature;humidity
22532;DHT22;11432;46.924;7.114;2024-02-04T00:00:32;3.90;26.40
22532;DHT22;11432;46.924;7.114;2024-02-04T00:02:58;3.80;1.00
22532;DHT22;11432;46.924;7.114;2024-02-04T00:05:24;3.80;1.00
22532;DHT22;11432;46.924;7.114;2024-02-04T00:07:49;3.70;1.00
22532;DHT22;11432;46.924;7.114;2024-02-04T00:10:15;3.60;1.00
22532;DHT22;11432;46.924;7.114;2024-02-04T00:12:42;3.60;1.00
22532;DHT22;11432;46.924;7.114;2024-02-04T00:15:09;3.50;1.00
22532;DHT22;11432;46.924;7.114;2024-02-04T00:17:35;3.50;1.00
22532;DHT22;11432;46.924;7.114;2024-02-04T00:20:01;3.40;1.00
22532;DHT22;11432;46.924;7.114;2024-02-04T00:22:28;3.30;1.00
22532;DHT22;11432;46.924;7.114;2024-02-04T00:24:53;3.20;1.00
22532;DHT22;11432;46.924;7.114;2024-02-04T00:27:19;3.20;92.50
22532;DHT22;11432;46.924;7.114;2024-02-04T00:29:45;3.10;99.90
22532;DHT22;11432;46.924;7.114;2024-02-04T00:32:10;3.20;99.90
22532;DHT22;11432;46.924;7.114;2024-02-04T00:34:36;3.20;99.90
22532;DHT22;11432;46.924;7.114;2024-02-04T00:37:02;3.30;99.90
22532;DHT22;11432;46.924;7.114;2024-02-04T00:39:27;3.40;99.90
22532;DHT22;11432;46.924;7.114;2024-02-04T00:41:53;3.50;99.90
22532;DHT22;11432;46.924;7.114;2024-02-04T00:44:19;3.50;28.40
22532;DHT22;11432;46.924;7.114;2024-02-04T00:46:44;3.60;1.00
22532;DHT22;11432;46.924;7.114;2024-02-04T00:49:10;3.60;1.00
22532;DHT22;11432;46.924;7.114;2024-02-04T00:51:35;3.50;1.00
22532;DHT22;11432;46.924;7.114;2024-02-04T00:54:01;3.50;1.00
22532;DHT22;11432;46.924;7.114;2024-02-04T00:56:27;3.50;1.00
22532;DHT22;11432;46.924;7.114;2024-02-04T00:58:52;3.40;1.00
22532;DHT22;11432;46.924;7.114;2024-02-04T01:01:18;3.40;1.00
22532;DHT22;11432;46.924;7.114;2024-02-04T01:03:45;3.30;1.00
22532;DHT22;11432;46.924;7.114;2024-02-04T01:06:11;3.30;21.60
22532;DHT22;11432;46.924;7.114;2024-02-04T01:08:37;3.40;99.90
22532;DHT22;11432;46.924;7.114;2024-02-04T01:11:04;3.30;44.60
22532;DHT22;11432;46.924;7.114;2024-02-04T01:13:30;3.40;99.90
22532;DHT22;11432;46.924;7.114;2024-02-04T01:15:55;3.40;57.50
22532;DHT22;11432;46.924;7.114;2024-02-04T01:18:21;3.30;99.90
22532;DHT22;11432;46.924;7.114;2024-02-04T01:20:47;3.30;81.00
22532;DHT22;11432;46.924;7.114;2024-02-04T01:23:13;3.30;91.40
22532;DHT22;11432;46.924;7.114;2024-02-04T01:25:38;3.30;79.50
22532;DHT22;11432;46.924;7.114;2024-02-04T01:28:04;3.40;99.90
22532;DHT22;11432;46.924;7.114;2024-02-04T01:30:30;3.50;99.90
22532;DHT22;11432;46.924;7.114;2024-02-04T01:32:56;3.70;29.20
22532;DHT22;11432;46.924;7.114;2024-02-04T01:35:22;3.70;1.00
22532;DHT22;11432;46.924;7.114;2024-02-04T01:37:47;3.70;1.00
22532;DHT22;11432;46.924;7.114;2024-02-04T01:40:16;3.70;1.00
22532;DHT22;11432;46.924;7.114;2024-02-04T01:42:42;3.60;1.00
22532;DHT22;11432;46.924;7.114;2024-02-04T01:45:08;3.50;1.00
22532;DHT22;11432;46.924;7.114;2024-02-04T01:47:34;3.50;1.00
22532;DHT22;11432;46.924;7.114;2024-02-04T01:50:00;3.40;1.00
22532;DHT22;11432;46.924;7.114;2024-02-04T01:52:27;3.40;1.00
22532;DHT22;11432;46.924;7.114;2024-02-04T01:54:52;3.30;4.20
22532;DHT22;11432;46.924;7.114;2024-02-04T01:57:18;3.30;11.00
22532;DHT22;11432;46.924;7.114;2024-02-04T01:59:45;3.20;3.10
22532;DHT22;11432;46.924;7.114;2024-02-04T02:02:12;3.20;1.00
22532;DHT22;11432;46.924;7.114;2024-02-04T02:04:39;3.10;10.80
22532;DHT22;11432;46.924;7.114;2024-02-04T02:07:04;3.10;92.30
22532;DHT22;11432;46.924;7.114;2024-02-04T02:09:33;3.10;99.90
22532;DHT22;11432;46.924;7.114;2024-02-04T02:12:11;3.00;99.90
22532;DHT22;11432;46.924;7.114;2024-02-04T02:14:43;2.90;99.90
22532;DHT22;11432;46.924;7.114;2024-02-04T02:17:15;2.90;99.90
22532;DHT22;11432;46.924;7.114;2024-02-04T02:20:02;2.80;99.90
22532;DHT22;11432;46.924;7.114;2024-02-04T02:22:55;2.70;99.90
22532;DHT22;11432;46.924;7.114;2024-02-04T02:25:26;2.70;99.90
22532;DHT22;11432;46.924;7.114;2024-02-04T02:27:52;2.70;99.90
22532;DHT22;11432;46.924;7.114;2024-02-04T02:30:18;2.70;99.90
22532;DHT22;11432;46.924;7.114;2024-02-04T02:32:44;2.70;99.90
22532;DHT22;11432;46.924;7.114;2024-02-04T02:35:20;2.70;99.90
22532;DHT22;11432;46.924;7.114;2024-02-04T02:38:11;2.70;99.90
22532;DHT22;11432;46.924;7.114;2024-02-04T02:40:43;2.60;99.90
22532;DHT22;11432;46.924;7.114;2024-02-04T02:43:11;2.70;99.90
22532;DHT22;11432;46.924;7.114;2024-02-04T02:45:40;2.70;99.90
22532;DHT22;11432;46.924;7.114;2024-02-04T02:48:07;2.80;99.90
22532;DHT22;11432;46.924;7.114;2024-02-04T02:50:34;2.80;99.90
22532;DHT22;11432;46.924;7.114;2024-02-04T02:53:00;2.70;99.90
22532;DHT22;11432;46.924;7.114;2024-02-04T02:55:26;2.70;99.90
22532;DHT22;11432;46.924;7.114;2024-02-04T02:57:51;2.60;99.90
22532;DHT22;11432;46.924;7.114;2024-02-04T03:00:17;2.50;99.90
22532;DHT22;11432;46.924;7.114;2024-02-04T03:02:42;2.50;99.90
22532;DHT22;11432;46.924;7.114;2024-02-04T03:05:08;2.40;99.90
22532;DHT22;11432;46.924;7.114;2024-02-04T03:07:35;2.40;99.90
22532;DHT22;11432;46.924;7.114;2024-02-04T03:10:00;2.40;99.90
22532;DHT22;11432;46.924;7.114;2024-02-04T03:12:26;2.40;99.90
22532;DHT22;11432;46.924;7.114;2024-02-04T03:14:51;2.40;99.90
22532;DHT22;11432;46.924;7.114;2024-02-04T03:17:17;2.30;99.90
22532;DHT22;11432;46.924;7.114;2024-02-04T03:19:47;2.30;99.90
22532;DHT22;11432;46.924;7.114;2024-02-04T03:22:13;2.30;99.90
22532;DHT22;11432;46.924;7.114;2024-02-04T03:24:38;2.30;99.90
22532;DHT22;11432;46.924;7.114;2024-02-04T03:27:04;2.20;99.90
22532;DHT22;11432;46.924;7.114;2024-02-04T03:29:29;2.10;99.90
22532;DHT22;11432;46.924;7.114;2024-02-04T03:31:58;2.10;99.90
22532;DHT22;11432;46.924;7.114;2024-02-04T03:34:24;2.10;99.90
22532;DHT22;11432;46.924;7.114;2024-02-04T03:36:49;2.10;99.90
22532;DHT22;11432;46.924;7.114;2024-02-04T03:39:15;2.00;99.90
22532;DHT22;11432;46.924;7.114;2024-02-04T03:41:41;2.00;99.90
22532;DHT22;11432;46.924;7.114;2024-02-04T03:44:06;1.90;99.90
22532;DHT22;11432;46.924;7.114;2024-02-04T03:46:32;1.90;99.90
22532;DHT22;11432;46.924;7.114;2024-02-04T03:48:57;1.90;99.90
22532;DHT22;11432;46.924;7.114;2024-02-04T03:51:23;1.90;99.90
22532;DHT22;11432;46.924;7.114;2024-02-04T03:53:50;1.90;99.90
22532;DHT22;11432;46.924;7.114;2024-02-04T03:56:15;1.90;99.90
22532;DHT22;11432;46.924;7.114;2024-02-04T03:58:41;1.90;99.90
22532;DHT22;11432;46.924;7.114;2024-02-04T04:01:10;1.80;99.90
22532;DHT22;11432;46.924;7.114;2024-02-04T04:03:39;1.90;99.90
22532;DHT22;11432;46.924;7.114;2024-02-04T04:06:05;1.90;99.90
22532;DHT22;11432;46.924;7.114;2024-02-04T04:08:31;1.80;99.90
22532;DHT22;11432;46.924;7.114;2024-02-04T04:10:57;1.70;99.90
22532;DHT22;11432;46.924;7.114;2024-02-04T04:13:22;1.70;99.90
22532;DHT22;11432;46.924;7.114;2024-02-04T04:15:48;1.70;99.90
22532;DHT22;11432;46.924;7.114;2024-02-04T04:18:13;1.60;99.90
22532;DHT22;11432;46.924;7.114;2024-02-04T04:20:40;1.70;99.90
22532;DHT22;11432;46.924;7.114;2024-02-04T04:23:05;1.60;99.90
22532;DHT22;11432;46.924;7.114;2024-02-04T04:25:31;1.70;99.90
22532;DHT22;11432;46.924;7.114;2024-02-04T04:27:57;1.60;99.90
22532;DHT22;11432;46.924;7.114;2024-02-04T04:30:23;1.60;99.90
22532;DHT22;11432;46.924;7.114;2024-02-04T04:32:49;1.70;99.90
22532;DHT22;11432;46.924;7.114;2024-02-04T04:35:15;1.70;99.90
22532;DHT22;11432;46.924;7.114;2024-02-04T04:37:40;1.70;99.90
22532;DHT22;11432;46.924;7.114;2024-02-04T04:40:07;1.80;99.90
22532;DHT22;11432;46.924;7.114;2024-02-04T04:42:32;1.70;99.90
22532;DHT22;11432;46.924;7.114;2024-02-04T04:44:58;1.70;99.90
22532;DHT22;11432;46.924;7.114;2024-02-04T04:47:24;1.70;99.90
22532;DHT22;11432;46.924;7.114;2024-02-04T04:49:49;1.70;99.90
22532;DHT22;11432;46.924;7.114;2024-02-04T04:52:16;1.70;99.90
22532;DHT22;11432;46.924;7.114;2024-02-04T04:54:42;1.70;99.90
22532;DHT22;11432;46.924;7.114;2024-02-04T04:57:08;1.60;99.90
22532;DHT22;11432;46.924;7.114;2024-02-04T04:59:33;1.60;99.90
22532;DHT22;11432;46.924;7.114;2024-02-04T05:02:01;1.50;99.90
22532;DHT22;11432;46.924;7.114;2024-02-04T05:04:27;1.50;99.90
22532;DHT22;11432;46.924;7.114;2024-02-04T05:06:52;1.50;99.90
22532;DHT22;11432;46.924;7.114;2024-02-04T05:09:18;1.50;99.90
22532;DHT22;11432;46.924;7.114;2024-02-04T05:11:44;1.50;99.90
22532;DHT22;11432;46.924;7.114;2024-02-04T05:14:09;1.60;99.90
22532;DHT22;11432;46.924;7.114;2024-02-04T05:16:35;1.50;99.90
22532;DHT22;11432;46.924;7.114;2024-02-04T05:19:02;1.40;99.90
22532;DHT22;11432;46.924;7.114;2024-02-04T05:21:28;1.40;99.90
22532;DHT22;11432;46.924;7.114;2024-02-04T05:23:53;1.40;99.90
22532;DHT22;11432;46.924;7.114;2024-02-04T05:26:19;1.40;99.90
22532;DHT22;11432;46.924;7.114;2024-02-04T05:28:45;1.40;99.90
22532;DHT22;11432;46.924;7.114;2024-02-04T05:31:10;1.40;99.90
22532;DHT22;11432;46.924;7.114;2024-02-04T05:33:36;1.40;99.90
22532;DHT22;11432;46.924;7.114;2024-02-04T05:36:01;1.30;99.90
22532;DHT22;11432;46.924;7.114;2024-02-04T05:38:27;1.30;99.90
22532;DHT22;11432;46.924;7.114;2024-02-04T05:40:53;1.30;99.90
22532;DHT22;11432;46.924;7.114;2024-02-04T05:43:19;1.20;99.90
22532;DHT22;11432;46.924;7.114;2024-02-04T05:45:44;1.20;99.90
22532;DHT22;11432;46.924;7.114;2024-02-04T05:48:10;1.20;99.90
22532;DHT22;11432;46.924;7.114;2024-02-04T05:50:36;1.20;99.90
22532;DHT22;11432;46.924;7.114;2024-02-04T05:53:02;1.20;99.90
22532;DHT22;11432;46.924;7.114;2024-02-04T05:55:29;1.20;99.90
22532;DHT22;11432;46.924;7.114;2024-02-04T05:57:54;1.20;99.90
22532;DHT22;11432;46.924;7.114;2024-02-04T06:00:20;1.10;99.90
22532;DHT22;11432;46.924;7.114;2024-02-04T06:02:46;1.10;99.90
22532;DHT22;11432;46.924;7.114;2024-02-04T06:05:12;1.20;99.90
22532;DHT22;11432;46.924;7.114;2024-02-04T06:07:38;1.10;99.90
22532;DHT22;11432;46.924;7.114;2024-02-04T06:10:05;1.20;99.90
22532;DHT22;11432;46.924;7.114;2024-02-04T06:12:30;1.10;99.90
22532;DHT22;11432;46.924;7.114;2024-02-04T06:14:56;1.10;99.90
22532;DHT22;11432;46.924;7.114;2024-02-04T06:17:22;1.00;99.90
22532;DHT22;11432;46.924;7.114;2024-02-04T06:19:47;0.90;99.90
22532;DHT22;11432;46.924;7.114;2024-02-04T06:22:14;0.90;99.90
22532;DHT22;11432;46.924;7.114;2024-02-04T06:24:40;0.90;99.90
22532;DHT22;11432;46.924;7.114;2024-02-04T06:27:07;0.90;99.90
22532;DHT22;11432;46.924;7.114;2024-02-04T06:29:33;0.90;99.90
22532;DHT22;11432;46.924;7.114;2024-02-04T06:31:59;0.90;99.90
22532;DHT22;11432;46.924;7.114;2024-02-04T06:34:25;0.90;99.90
22532;DHT22;11432;46.924;7.114;2024-02-04T06:36:50;0.90;99.90
22532;DHT22;11432;46.924;7.114;2024-02-04T06:39:16;1.00;99.90
22532;DHT22;11432;46.924;7.114;2024-02-04T06:41:42;0.90;99.90
22532;DHT22;11432;46.924;7.114;2024-02-04T06:44:07;0.80;99.90
22532;DHT22;11432;46.924;7.114;2024-02-04T06:46:33;0.90;99.90
22532;DHT22;11432;46.924;7.114;2024-02-04T06:48:59;0.80;99.90
22532;DHT22;11432;46.924;7.114;2024-02-04T06:51:24;0.90;99.90
22532;DHT22;11432;46.924;7.114;2024-02-04T06:53:50;0.90;99.90
22532;DHT22;11432;46.924;7.114;2024-02-04T06:56:17;0.90;99.90
22532;DHT22;11432;46.924;7.114;2024-02-04T06:58:43;0.90;99.90
22532;DHT22;11432;46.924;7.114;2024-02-04T07:01:09;0.90;99.90
22532;DHT22;11432;46.924;7.114;2024-02-04T07:03:35;0.90;99.90
22532;DHT22;11432;46.924;7.114;2024-02-04T07:06:01;0.80;99.90
22532;DHT22;11432;46.924;7.114;2024-02-04T07:08:27;0.80;99.90
22532;DHT22;11432;46.924;7.114;2024-02-04T07:10:53;0.80;99.90
22532;DHT22;11432;46.924;7.114;2024-02-04T07:13:18;0.80;99.90
22532;DHT22;11432;46.924;7.114;2024-02-04T07:15:44;0.90;99.90
22532;DHT22;11432;46.924;7.114;2024-02-04T07:18:10;1.00;99.90
22532;DHT22;11432;46.924;7.114;2024-02-04T07:20:37;1.00;99.90
22532;DHT22;11432;46.924;7.114;2024-02-04T07:23:03;1.10;99.90
22532;DHT22;11432;46.924;7.114;2024-02-04T07:25:29;1.20;99.90
22532;DHT22;11432;46.924;7.114;2024-02-04T07:27:55;1.20;99.90
22532;DHT22;11432;46.924;7.114;2024-02-04T07:30:21;1.20;99.90
22532;DHT22;11432;46.924;7.114;2024-02-04T07:32:47;1.30;99.90
22532;DHT22;11432;46.924;7.114;2024-02-04T07:35:13;1.30;99.90
22532;DHT22;11432;46.924;7.114;2024-02-04T07:37:41;1.40;99.90
22532;DHT22;11432;46.924;7.114;2024-02-04T07:40:09;1.70;99.90
22532;DHT22;11432;46.924;7.114;2024-02-04T07:42:51;1.70;99.90
22532;DHT22;11432;46.924;7.114;2024-02-04T07:45:16;1.70;99.90
22532;DHT22;11432;46.924;7.114;2024-02-04T07:47:42;1.70;99.90
22532;DHT22;11432;46.924;7.114;2024-02-04T07:50:08;1.80;99.90
22532;DHT22;11432;46.924;7.114;2024-02-04T07:52:34;1.80;99.90
22532;DHT22;11432;46.924;7.114;2024-02-04T07:54:59;1.70;99.90
22532;DHT22;11432;46.924;7.114;2024-02-04T07:57:25;1.80;99.90
22532;DHT22;11432;46.924;7.114;2024-02-04T07:59:50;1.70;99.90
22532;DHT22;11432;46.924;7.114;2024-02-04T08:02:17;1.80;99.90
22532;DHT22;11432;46.924;7.114;2024-02-04T08:04:43;1.90;99.90
22532;DHT22;11432;46.924;7.114;2024-02-04T08:07:08;2.00;99.90
22532;DHT22;11432;46.924;7.114;2024-02-04T08:09:34;2.10;99.90
22532;DHT22;11432;46.924;7.114;2024-02-04T08:12:00;2.20;99.90
22532;DHT22;11432;46.924;7.114;2024-02-04T08:14:26;2.30;99.90
22532;DHT22;11432;46.924;7.114;2024-02-04T08:16:51;2.40;99.90
22532;DHT22;11432;46.924;7.114;2024-02-04T08:19:17;2.30;99.90
22532;DHT22;11432;46.924;7.114;2024-02-04T08:21:43;2.30;99.90
22532;DHT22;11432;46.924;7.114;2024-02-04T08:24:08;2.30;99.90
22532;DHT22;11432;46.924;7.114;2024-02-04T08:26:34;2.40;99.90
22532;DHT22;11432;46.924;7.114;2024-02-04T08:29:00;2.30;99.90
22532;DHT22;11432;46.924;7.114;2024-02-04T08:31:25;2.40;99.90
22532;DHT22;11432;46.924;7.114;2024-02-04T08:33:51;2.40;99.90
22532;DHT22;11432;46.924;7.114;2024-02-04T08:36:18;2.50;99.90
22532;DHT22;11432;46.924;7.114;2024-02-04T08:38:44;2.60;99.90
22532;DHT22;11432;46.924;7.114;2024-02-04T08:41:09;2.70;99.90
22532;DHT22;11432;46.924;7.114;2024-02-04T08:43:35;2.70;99.90
22532;DHT22;11432;46.924;7.114;2024-02-04T08:46:00;2.70;99.90
22532;DHT22;11432;46.924;7.114;2024-02-04T08:48:26;2.90;99.90
22532;DHT22;11432;46.924;7.114;2024-02-04T08:50:52;3.00;99.90
22532;DHT22;11432;46.924;7.114;2024-02-04T08:53:19;3.20;99.90
22532;DHT22;11432;46.924;7.114;2024-02-04T08:55:45;3.20;99.90
22532;DHT22;11432;46.924;7.114;2024-02-04T08:58:11;3.30;99.90
22532;DHT22;11432;46.924;7.114;2024-02-04T09:00:36;3.30;99.90
22532;DHT22;11432;46.924;7.114;2024-02-04T09:03:02;3.30;99.90
22532;DHT22;11432;46.924;7.114;2024-02-04T09:05:28;3.30;99.90
22532;DHT22;11432;46.924;7.114;2024-02-04T09:07:53;3.40;99.90
22532;DHT22;11432;46.924;7.114;2024-02-04T09:10:21;3.40;99.90
22532;DHT22;11432;46.924;7.114;2024-02-04T09:12:46;3.40;99.90
22532;DHT22;11432;46.924;7.114;2024-02-04T09:15:12;3.40;99.90
22532;DHT22;11432;46.924;7.114;2024-02-04T09:17:38;3.40;99.90
22532;DHT22;11432;46.924;7.114;2024-02-04T09:20:04;3.40;99.90
22532;DHT22;11432;46.924;7.114;2024-02-04T09:22:30;3.50;99.90
22532;DHT22;11432;46.924;7.114;2024-02-04T09:24:55;3.50;99.90
22532;DHT22;11432;46.924;7.114;2024-02-04T09:27:21;3.50;99.90
22532;DHT22;11432;46.924;7.114;2024-02-04T09:29:47;3.60;99.90
22532;DHT22;11432;46.924;7.114;2024-02-04T09:32:13;3.70;99.90
22532;DHT22;11432;46.924;7.114;2024-02-04T09:34:38;3.80;99.90
22532;DHT22;11432;46.924;7.114;2024-02-04T09:37:04;3.90;99.90
22532;DHT22;11432;46.924;7.114;2024-02-04T09:39:30;4.00;99.90
22532;DHT22;11432;46.924;7.114;2024-02-04T09:41:55;4.20;99.90
22532;DHT22;11432;46.924;7.114;2024-02-04T09:44:23;4.30;1.00
22532;DHT22;11432;46.924;7.114;2024-02-04T09:46:49;4.40;1.00
22532;DHT22;11432;46.924;7.114;2024-02-04T09:49:15;4.60;1.00
22532;DHT22;11432;46.924;7.114;2024-02-04T09:51:41;4.80;99.90
22532;DHT22;11432;46.924;7.114;2024-02-04T09:54:09;4.80;1.00
22532;DHT22;11432;46.924;7.114;2024-02-04T09:56:37;4.80;1.00
22532;DHT22;11432;46.924;7.114;2024-02-04T09:59:04;4.80;91.80
22532;DHT22;11432;46.924;7.114;2024-02-04T10:01:31;4.80;99.90
22532;DHT22;11432;46.924;7.114;2024-02-04T10:03:57;4.80;1.00
22532;DHT22;11432;46.924;7.114;2024-02-04T10:06:23;4.80;1.00
22532;DHT22;11432;46.924;7.114;2024-02-04T10:08:49;4.90;99.90
22532;DHT22;11432;46.924;7.114;2024-02-04T10:11:15;5.00;99.90
22532;DHT22;11432;46.924;7.114;2024-02-04T10:13:49;5.20;1.00
22532;DHT22;11432;46.924;7.114;2024-02-04T10:16:15;5.40;90.20
22532;DHT22;11432;46.924;7.114;2024-02-04T10:18:42;5.60;1.00
22532;DHT22;11432;46.924;7.114;2024-02-04T10:21:19;5.70;1.00
22532;DHT22;11432;46.924;7.114;2024-02-04T10:23:48;5.90;99.90
22532;DHT22;11432;46.924;7.114;2024-02-04T10:26:14;6.10;1.00
22532;DHT22;11432;46.924;7.114;2024-02-04T10:28:40;6.20;99.90
22532;DHT22;11432;46.924;7.114;2024-02-04T10:31:08;6.30;21.50
22532;DHT22;11432;46.924;7.114;2024-02-04T10:33:35;6.50;1.00
22532;DHT22;11432;46.924;7.114;2024-02-04T10:36:01;6.80;1.00
22532;DHT22;11432;46.924;7.114;2024-02-04T10:38:27;7.50;50.40
22532;DHT22;11432;46.924;7.114;2024-02-04T10:40:54;8.50;1.00
22532;DHT22;11432;46.924;7.114;2024-02-04T10:43:21;9.20;99.90
22532;DHT22;11432;46.924;7.114;2024-02-04T10:45:47;10.00;99.90
22532;DHT22;11432;46.924;7.114;2024-02-04T10:48:15;10.50;99.90
22532;DHT22;11432;46.924;7.114;2024-02-04T10:50:45;11.30;99.90
22532;DHT22;11432;46.924;7.114;2024-02-04T10:53:14;11.70;99.90
22532;DHT22;11432;46.924;7.114;2024-02-04T10:55:41;12.10;99.90
22532;DHT22;11432;46.924;7.114;2024-02-04T10:58:12;12.10;99.90
22532;DHT22;11432;46.924;7.114;2024-02-04T11:00:40;12.10;99.90
22532;DHT22;11432;46.924;7.114;2024-02-04T11:03:06;12.30;99.90
22532;DHT22;11432;46.924;7.114;2024-02-04T11:05:33;11.90;99.90
22532;DHT22;11432;46.924;7.114;2024-02-04T11:08:02;11.20;99.90
22532;DHT22;11432;46.924;7.114;2024-02-04T11:10:30;11.00;99.90
22532;DHT22;11432;46.924;7.114;2024-02-04T11:12:58;11.00;99.90
22532;DHT22;11432;46.924;7.114;2024-02-04T11:15:28;11.10;99.90
22532;DHT22;11432;46.924;7.114;2024-02-04T11:26:08;12.90;99.90
22532;DHT22;11432;46.924;7.114;2024-02-04T11:28:34;13.40;99.90
22532;DHT22;11432;46.924;7.114;2024-02-04T11:31:00;14.00;99.90
22532;DHT22;11432;46.924;7.114;2024-02-04T11:33:27;14.20;99.90
22532;DHT22;11432;46.924;7.114;2024-02-04T11:36:03;14.70;99.90
22532;DHT22;11432;46.924;7.114;2024-02-04T11:38:35;14.60;99.90
22532;DHT22;11432;46.924;7.114;2024-02-04T11:41:02;14.60;99.90
22532;DHT22;11432;46.924;7.114;2024-02-04T11:43:29;14.90;99.90
22532;DHT22;11432;46.924;7.114;2024-02-04T11:45:54;14.30;99.90
22532;DHT22;11432;46.924;7.114;2024-02-04T11:48:29;14.30;99.90
22532;DHT22;11432;46.924;7.114;2024-02-04T11:50:57;14.70;99.90
22532;DHT22;11432;46.924;7.114;2024-02-04T11:53:23;14.70;99.90
22532;DHT22;11432;46.924;7.114;2024-02-04T11:55:52;14.60;99.90
22532;DHT22;11432;46.924;7.114;2024-02-04T11:58:18;14.30;99.90
22532;DHT22;11432;46.924;7.114;2024-02-04T12:00:45;14.50;99.90
22532;DHT22;11432;46.924;7.114;2024-02-04T12:03:11;14.90;99.90
22532;DHT22;11432;46.924;7.114;2024-02-04T12:05:37;14.70;99.90
22532;DHT22;11432;46.924;7.114;2024-02-04T12:08:07;15.50;99.90
22532;DHT22;11432;46.924;7.114;2024-02-04T12:10:34;15.50;99.90
22532;DHT22;11432;46.924;7.114;2024-02-04T12:13:03;15.30;99.90
22532;DHT22;11432;46.924;7.114;2024-02-04T12:15:29;15.50;99.90
22532;DHT22;11432;46.924;7.114;2024-02-04T12:18:08;15.90;99.90
22532;DHT22;11432;46.924;7.114;2024-02-04T12:20:34;16.30;99.90
22532;DHT22;11432;46.924;7.114;2024-02-04T12:23:01;15.60;99.90
22532;DHT22;11432;46.924;7.114;2024-02-04T12:25:27;14.80;99.90
22532;DHT22;11432;46.924;7.114;2024-02-04T12:27:55;14.40;99.90
22532;DHT22;11432;46.924;7.114;2024-02-04T12:30:20;14.30;99.90
22532;DHT22;11432;46.924;7.114;2024-02-04T12:32:59;14.90;99.90
22532;DHT22;11432;46.924;7.114;2024-02-04T12:35:25;15.20;99.90
22532;DHT22;11432;46.924;7.114;2024-02-04T12:37:55;15.20;99.90
22532;DHT22;11432;46.924;7.114;2024-02-04T12:40:26;15.40;99.90
22532;DHT22;11432;46.924;7.114;2024-02-04T12:42:58;15.60;99.90
22532;DHT22;11432;46.924;7.114;2024-02-04T12:45:25;15.70;99.90
22532;DHT22;11432;46.924;7.114;2024-02-04T12:47:52;15.80;99.90
22532;DHT22;11432;46.924;7.114;2024-02-04T12:50:18;16.20;99.90
22532;DHT22;11432;46.924;7.114;2024-02-04T12:52:48;17.10;99.90
22532;DHT22;11432;46.924;7.114;2024-02-04T12:55:23;17.00;99.90
22532;DHT22;11432;46.924;7.114;2024-02-04T12:57:49;16.70;99.90
22532;DHT22;11432;46.924;7.114;2024-02-04T13:00:18;16.90;99.90
22532;DHT22;11432;46.924;7.114;2024-02-04T13:02:44;17.30;99.90
22532;DHT22;11432;46.924;7.114;2024-02-04T13:07:35;17.20;99.90
22532;DHT22;11432;46.924;7.114;2024-02-04T13:10:01;17.60;99.90
22532;DHT22;11432;46.924;7.114;2024-02-04T13:12:26;18.00;99.90
22532;DHT22;11432;46.924;7.114;2024-02-04T13:14:52;18.40;99.90
22532;DHT22;11432;46.924;7.114;2024-02-04T13:17:18;18.60;99.90
22532;DHT22;11432;46.924;7.114;2024-02-04T13:19:43;18.00;99.90
22532;DHT22;11432;46.924;7.114;2024-02-04T13:22:10;17.50;99.90
22532;DHT22;11432;46.924;7.114;2024-02-04T13:24:35;17.80;99.90
22532;DHT22;11432;46.924;7.114;2024-02-04T13:27:02;18.00;99.90
22532;DHT22;11432;46.924;7.114;2024-02-04T13:29:28;18.10;99.90
22532;DHT22;11432;46.924;7.114;2024-02-04T13:31:54;18.60;99.90
22532;DHT22;11432;46.924;7.114;2024-02-04T13:34:21;18.60;99.90
22532;DHT22;11432;46.924;7.114;2024-02-04T13:36:46;18.90;99.90
22532;DHT22;11432;46.924;7.114;2024-02-04T13:39:12;19.70;99.90
22532;DHT22;11432;46.924;7.114;2024-02-04T13:41:41;19.60;99.90
22532;DHT22;11432;46.924;7.114;2024-02-04T13:44:06;18.80;99.90
22532;DHT22;11432;46.924;7.114;2024-02-04T13:46:32;18.70;99.90
22532;DHT22;11432;46.924;7.114;2024-02-04T13:48:58;18.20;99.90
22532;DHT22;11432;46.924;7.114;2024-02-04T13:51:24;17.60;99.90
22532;DHT22;11432;46.924;7.114;2024-02-04T13:53:49;18.10;99.90
22532;DHT22;11432;46.924;7.114;2024-02-04T13:56:15;18.20;99.90
22532;DHT22;11432;46.924;7.114;2024-02-04T13:58:44;17.60;99.90
22532;DHT22;11432;46.924;7.114;2024-02-04T14:01:10;17.70;99.90
22532;DHT22;11432;46.924;7.114;2024-02-04T14:03:35;17.40;99.90
22532;DHT22;11432;46.924;7.114;2024-02-04T14:06:01;18.10;99.90
22532;DHT22;11432;46.924;7.114;2024-02-04T14:08:29;18.10;99.90
22532;DHT22;11432;46.924;7.114;2024-02-04T14:10:54;17.20;99.90
22532;DHT22;11432;46.924;7.114;2024-02-04T14:13:20;15.80;99.90
22532;DHT22;11432;46.924;7.114;2024-02-04T14:15:46;14.20;99.90
22532;DHT22;11432;46.924;7.114;2024-02-04T14:18:11;13.60;99.90
22532;DHT22;11432;46.924;7.114;2024-02-04T14:20:37;13.40;99.90
22532;DHT22;11432;46.924;7.114;2024-02-04T14:23:02;13.00;99.90
22532;DHT22;11432;46.924;7.114;2024-02-04T14:25:28;12.80;99.90
22532;DHT22;11432;46.924;7.114;2024-02-04T14:27:54;12.70;99.90
22532;DHT22;11432;46.924;7.114;2024-02-04T14:30:19;12.60;99.90
22532;DHT22;11432;46.924;7.114;2024-02-04T14:32:45;12.60;99.90
22532;DHT22;11432;46.924;7.114;2024-02-04T14:35:11;12.70;99.90
22532;DHT22;11432;46.924;7.114;2024-02-04T14:37:37;12.50;99.90
22532;DHT22;11432;46.924;7.114;2024-02-04T14:40:05;12.30;99.90
22532;DHT22;11432;46.924;7.114;2024-02-04T14:42:32;12.10;99.90
22532;DHT22;11432;46.924;7.114;2024-02-04T14:44:58;11.90;99.90
22532;DHT22;11432;46.924;7.114;2024-02-04T14:47:26;11.90;99.90
22532;DHT22;11432;46.924;7.114;2024-02-04T14:49:52;11.90;99.90
22532;DHT22;11432;46.924;7.114;2024-02-04T14:52:18;12.00;99.90
22532;DHT22;11432;46.924;7.114;2024-02-04T14:54:44;11.90;99.90
22532;DHT22;11432;46.924;7.114;2024-02-04T14:57:09;11.90;99.90
22532;DHT22;11432;46.924;7.114;2024-02-04T14:59:35;11.90;99.90
22532;DHT22;11432;46.924;7.114;2024-02-04T15:02:03;12.00;99.90
22532;DHT22;11432;46.924;7.114;2024-02-04T15:04:31;12.00;99.90
22532;DHT22;11432;46.924;7.114;2024-02-04T15:06:57;12.20;99.90
22532;DHT22;11432;46.924;7.114;2024-02-04T15:09:23;12.30;99.90
22532;DHT22;11432;46.924;7.114;2024-02-04T15:11:49;12.40;99.90
22532;DHT22;11432;46.924;7.114;2024-02-04T15:14:15;12.40;99.90
22532;DHT22;11432;46.924;7.114;2024-02-04T15:16:42;12.30;99.90
22532;DHT22;11432;46.924;7.114;2024-02-04T15:19:08;12.30;99.90
22532;DHT22;11432;46.924;7.114;2024-02-04T15:21:34;12.20;99.90
22532;DHT22;11432;46.924;7.114;2024-02-04T15:24:00;12.20;99.90
22532;DHT22;11432;46.924;7.114;2024-02-04T15:26:33;12.20;99.90
22532;DHT22;11432;46.924;7.114;2024-02-04T15:29:02;12.10;99.90
22532;DHT22;11432;46.924;7.114;2024-02-04T15:31:28;12.10;99.90
22532;DHT22;11432;46.924;7.114;2024-02-04T15:33:54;12.00;99.90
22532;DHT22;11432;46.924;7.114;2024-02-04T15:36:20;12.00;99.90
22532;DHT22;11432;46.924;7.114;2024-02-04T15:38:46;12.00;99.90
22532;DHT22;11432;46.924;7.114;2024-02-04T15:41:12;11.90;99.90
22532;DHT22;11432;46.924;7.114;2024-02-04T15:43:37;11.80;99.90
22532;DHT22;11432;46.924;7.114;2024-02-04T15:46:07;11.70;99.90
22532;DHT22;11432;46.924;7.114;2024-02-04T15:48:38;11.70;99.90